Petrified Forest Natl Park, Arizona
Current Conditions -  °F | °C
As of 5:54 PM on Saturday 22 Nov 2014 (Local Time) from KSJN Reporting Station
Clear Clear  
Wind Chill: 51°   Ceiling: Unl
Heat Index: 51°   Visibility: 10mi
Dew Point: 17°   Wind: 16mph
Humidity: 26%   Direction: 230°SW
Pressure: 29.97"   Gusts: NA
Location:  34.92°N, 109.82°W
Report Text: KSJN 230054Z AUTO 23014KT 10SM CLR 11/M08 A2997 RMK AO2 SLP130 T01061083
Loading
Personal Weather Stations






























Interactive Weather Map New forecast layout! Learn more

10-Day Weather Forecast

Advertisements
Track Severe Weather on mobile